createdAt,value
2023-03-14T00:00:12.680Z,12.97
2023-03-14T00:02:41.043Z,13.77
2023-03-14T00:05:10.021Z,16.40
2023-03-14T00:07:39.031Z,14.57
2023-03-14T00:10:07.822Z,8.30
2023-03-14T00:12:36.173Z,10.60
2023-03-14T00:15:05.661Z,17.67
2023-03-14T00:17:35.361Z,18.50
2023-03-14T00:20:09.078Z,14.10
2023-03-14T00:22:37.699Z,11.10
2023-03-14T00:25:06.519Z,12.97
2023-03-14T00:27:34.901Z,16.03
2023-03-14T00:30:03.881Z,12.20
2023-03-14T00:32:32.398Z,23.17
2023-03-14T00:35:02.655Z,18.77
2023-03-14T00:37:31.213Z,15.70
2023-03-14T00:39:59.752Z,16.97
2023-03-14T00:42:28.461Z,20.23
2023-03-14T00:44:57.027Z,15.20
2023-03-14T00:47:25.361Z,14.00
2023-03-14T00:49:53.819Z,21.13
2023-03-14T00:52:23.704Z,17.10
2023-03-14T00:54:52.146Z,25.57
2023-03-14T00:57:20.490Z,16.37
2023-03-14T00:59:48.827Z,24.23
2023-03-14T01:02:17.170Z,16.53
2023-03-14T01:04:45.545Z,13.57
2023-03-14T01:07:14.000Z,22.90
2023-03-14T01:09:43.771Z,16.97
2023-03-14T01:12:12.119Z,18.23
2023-03-14T01:14:40.471Z,10.90
2023-03-14T01:17:08.833Z,16.33
2023-03-14T01:19:37.356Z,15.23
2023-03-14T01:22:05.851Z,21.00
2023-03-14T01:24:34.575Z,9.23
2023-03-14T01:27:04.535Z,17.80
2023-03-14T01:29:33.045Z,11.23
2023-03-14T01:32:01.598Z,16.80
2023-03-14T01:34:30.091Z,10.30
2023-03-14T01:36:58.519Z,12.67
2023-03-14T01:39:27.071Z,14.30
2023-03-14T01:41:55.539Z,11.27
2023-03-14T01:44:25.398Z,11.30
2023-03-14T01:46:53.775Z,10.67
2023-03-14T01:49:23.800Z,16.43
2023-03-14T01:51:53.384Z,16.57
2023-03-14T01:54:22.860Z,14.00
2023-03-14T01:56:52.825Z,12.27
2023-03-14T01:59:21.466Z,12.43
2023-03-14T02:01:51.283Z,13.53
2023-03-14T02:04:20.052Z,10.37
2023-03-14T02:06:50.452Z,14.00
2023-03-14T02:09:19.115Z,9.73
2023-03-14T02:11:47.558Z,11.13
2023-03-14T02:14:17.461Z,9.53
2023-03-14T02:16:45.927Z,11.67
2023-03-14T02:19:16.014Z,10.73
2023-03-14T02:21:47.248Z,9.73
2023-03-14T02:24:17.342Z,13.07
2023-03-14T02:26:46.580Z,7.97
2023-03-14T02:29:16.444Z,14.10
2023-03-14T02:31:44.972Z,11.60
2023-03-14T02:34:13.469Z,11.80
2023-03-14T02:36:42.014Z,11.10
2023-03-14T02:39:11.601Z,11.07
2023-03-14T02:41:40.176Z,9.90
2023-03-14T02:44:08.658Z,11.90
2023-03-14T02:46:38.429Z,7.80
2023-03-14T02:49:07.560Z,11.33
2023-03-14T02:51:36.246Z,14.37
2023-03-14T02:54:04.855Z,8.37
2023-03-14T02:56:33.394Z,8.57
2023-03-14T02:59:01.872Z,10.73
2023-03-14T03:01:30.504Z,15.53
2023-03-14T03:04:00.298Z,7.23
2023-03-14T03:06:28.777Z,10.20
2023-03-14T03:08:57.212Z,9.73
2023-03-14T03:11:25.788Z,10.47
2023-03-14T03:13:54.185Z,9.00
2023-03-14T03:16:22.712Z,10.10
2023-03-14T03:18:51.243Z,11.40
2023-03-14T03:21:24.465Z,10.70
2023-03-14T03:23:53.139Z,9.33
2023-03-14T03:26:21.808Z,11.07
2023-03-14T03:28:50.384Z,13.83
2023-03-14T03:31:18.896Z,12.93
2023-03-14T03:33:47.333Z,10.63
2023-03-14T03:36:15.715Z,11.63
2023-03-14T03:38:45.727Z,13.70
2023-03-14T03:41:14.122Z,8.13
2023-03-14T03:43:42.491Z,11.33
2023-03-14T03:46:11.275Z,13.60
2023-03-14T03:48:39.671Z,14.40
2023-03-14T03:51:08.615Z,11.00
2023-03-14T03:53:37.051Z,9.33
2023-03-14T03:56:07.321Z,11.33
2023-03-14T03:58:35.806Z,11.13
2023-03-14T04:01:04.682Z,7.50
2023-03-14T04:03:33.290Z,9.97
2023-03-14T04:06:02.473Z,11.53
2023-03-14T04:08:30.996Z,11.77
2023-03-14T04:10:59.723Z,11.67
2023-03-14T04:13:29.661Z,12.00
2023-03-14T04:15:58.246Z,8.67
2023-03-14T04:18:26.901Z,12.37
2023-03-14T04:20:55.652Z,9.60
2023-03-14T04:23:25.186Z,7.30
2023-03-14T04:25:54.079Z,11.40
2023-03-14T04:28:22.519Z,13.20
2023-03-14T04:30:52.454Z,11.67
2023-03-14T04:33:20.908Z,12.90
2023-03-14T04:35:51.370Z,13.10
2023-03-14T04:38:19.917Z,13.20
2023-03-14T04:40:48.419Z,7.83
2023-03-14T04:43:16.893Z,14.97
2023-03-14T04:45:45.408Z,13.50
2023-03-14T04:48:15.224Z,9.53
2023-03-14T04:50:44.028Z,11.23
2023-03-14T04:53:12.436Z,9.60
2023-03-14T04:55:40.821Z,8.20
2023-03-14T04:58:09.239Z,12.30
2023-03-14T05:00:39.765Z,12.57
2023-03-14T05:03:08.579Z,13.43
2023-03-14T05:05:38.668Z,7.63
2023-03-14T05:08:07.320Z,6.50
2023-03-14T05:10:35.958Z,11.33
2023-03-14T05:13:04.373Z,8.00
2023-03-14T05:15:33.269Z,9.43
2023-03-14T05:18:01.737Z,10.40
2023-03-14T05:20:30.155Z,15.63
2023-03-14T05:23:00.146Z,16.67
2023-03-14T05:25:29.971Z,11.93
2023-03-14T05:27:59.385Z,10.43
2023-03-14T05:30:29.009Z,11.40
2023-03-14T05:32:57.497Z,12.00
2023-03-14T05:35:25.851Z,11.07
2023-03-14T05:37:54.330Z,10.43
2023-03-14T05:40:24.105Z,10.37
2023-03-14T05:42:53.400Z,11.53
2023-03-14T05:45:22.070Z,10.43
2023-03-14T05:47:50.601Z,12.63
2023-03-14T05:50:19.029Z,7.53
2023-03-14T05:52:47.376Z,11.97
2023-03-14T05:55:15.964Z,6.97
2023-03-14T05:57:45.768Z,6.10
2023-03-14T06:00:14.508Z,8.03
2023-03-14T06:02:42.965Z,11.40
2023-03-14T06:05:11.511Z,6.73
2023-03-14T06:07:40.064Z,10.90
2023-03-14T06:10:09.630Z,6.00
2023-03-14T06:12:38.027Z,5.40
2023-03-14T06:15:08.634Z,8.37
2023-03-14T06:17:37.219Z,10.53
2023-03-14T06:20:05.858Z,2.77
2023-03-14T06:22:34.638Z,4.33
2023-03-14T06:25:03.179Z,5.73
2023-03-14T06:27:31.649Z,8.03
2023-03-14T06:30:00.165Z,7.77
2023-03-14T06:32:29.981Z,6.93
2023-03-14T06:35:01.938Z,7.27
2023-03-14T06:37:30.668Z,6.23
2023-03-14T06:39:59.284Z,8.17
2023-03-14T06:42:27.795Z,8.30
2023-03-14T06:44:56.131Z,8.07
2023-03-14T06:47:24.610Z,14.07
2023-03-14T06:49:54.558Z,7.27
2023-03-14T06:52:23.119Z,11.33
2023-03-14T06:54:51.580Z,12.47
2023-03-14T06:57:19.925Z,15.57
2023-03-14T06:59:48.454Z,19.60
2023-03-14T07:02:16.896Z,13.03
2023-03-14T07:04:45.700Z,9.40
2023-03-14T07:07:15.564Z,12.77
2023-03-14T07:09:44.216Z,9.07
2023-03-14T07:12:12.622Z,9.97
2023-03-14T07:14:41.013Z,8.93
2023-03-14T07:17:09.421Z,11.47
2023-03-14T07:19:38.940Z,14.23
2023-03-14T07:22:07.375Z,5.40
2023-03-14T07:24:37.245Z,6.73
2023-03-14T07:27:05.811Z,6.73
2023-03-14T07:29:34.546Z,7.20
2023-03-14T07:32:03.101Z,16.33
2023-03-14T07:34:31.543Z,14.50
2023-03-14T07:36:59.931Z,13.93
2023-03-14T07:39:28.404Z,3.97
2023-03-14T07:42:00.289Z,10.30
2023-03-14T07:44:28.916Z,11.03
2023-03-14T07:46:57.539Z,9.30
2023-03-14T07:49:25.967Z,8.57
2023-03-14T07:51:54.355Z,9.70
2023-03-14T07:54:26.043Z,19.27
2023-03-14T07:56:54.441Z,18.93
2023-03-14T07:59:24.248Z,6.97
2023-03-14T08:01:55.066Z,12.20
2023-03-14T08:04:23.601Z,7.03
2023-03-14T08:06:52.052Z,9.40
2023-03-14T08:09:20.379Z,8.20
2023-03-14T08:11:48.751Z,13.93
2023-03-14T08:14:17.320Z,8.60
2023-03-14T08:16:47.146Z,10.47
2023-03-14T08:19:15.614Z,6.83
2023-03-14T08:21:44.014Z,14.97
2023-03-14T08:24:12.439Z,8.20
2023-03-14T08:26:40.855Z,10.00
2023-03-14T08:29:09.294Z,7.07
2023-03-14T08:31:37.707Z,7.90
2023-03-14T08:34:08.094Z,10.57
2023-03-14T08:36:36.744Z,7.67
2023-03-14T08:39:08.349Z,9.13
2023-03-14T08:41:41.223Z,7.37
2023-03-14T08:44:09.793Z,13.90
2023-03-14T08:46:38.317Z,9.63
2023-03-14T08:49:08.189Z,11.00
2023-03-14T08:51:36.565Z,12.10
2023-03-14T08:54:05.009Z,12.30
2023-03-14T08:56:33.518Z,10.23
2023-03-14T08:59:01.882Z,12.80
2023-03-14T09:01:30.320Z,10.77
2023-03-14T09:03:59.068Z,11.07
2023-03-14T09:06:29.138Z,19.07
2023-03-14T09:08:57.541Z,23.13
2023-03-14T09:11:25.914Z,15.97
2023-03-14T09:13:54.359Z,15.43
2023-03-14T09:16:23.042Z,15.80
2023-03-14T09:18:51.648Z,31.50
2023-03-14T09:21:19.971Z,15.87
2023-03-14T09:23:49.967Z,20.80
2023-03-14T09:26:18.459Z,18.60
2023-03-14T09:28:46.890Z,27.97
2023-03-14T09:31:15.297Z,15.43
2023-03-14T09:33:43.601Z,21.53
2023-03-14T09:36:12.399Z,12.00
2023-03-14T09:38:40.779Z,10.57
2023-03-14T09:41:15.950Z,12.87
2023-03-14T09:43:44.352Z,18.37
2023-03-14T09:46:13.139Z,15.47
2023-03-14T09:48:41.943Z,14.03
2023-03-14T09:51:10.738Z,13.90
2023-03-14T09:53:39.834Z,18.53
2023-03-14T09:56:10.564Z,17.27
2023-03-14T09:58:40.529Z,22.20
2023-03-14T10:01:10.759Z,20.17
2023-03-14T10:03:39.183Z,22.87
2023-03-14T10:06:11.770Z,16.10
2023-03-14T10:08:41.799Z,14.37
2023-03-14T10:11:12.562Z,20.87
2023-03-14T10:13:42.561Z,25.03
2023-03-14T10:16:11.337Z,26.03
2023-03-14T10:18:40.008Z,15.73
2023-03-14T10:21:19.087Z,21.63
2023-03-14T10:23:49.725Z,22.47
2023-03-14T10:26:18.788Z,22.33
2023-03-14T10:28:49.080Z,23.77
2023-03-14T10:31:17.940Z,22.57
2023-03-14T10:33:47.892Z,20.20
2023-03-14T10:36:20.961Z,17.97
2023-03-14T10:38:49.458Z,27.73
2023-03-14T10:41:18.894Z,20.20
2023-03-14T10:43:48.733Z,21.37
2023-03-14T10:46:18.277Z,22.30
2023-03-14T10:48:47.667Z,23.03
2023-03-14T10:51:20.872Z,20.20
2023-03-14T10:53:49.563Z,22.07
2023-03-14T10:56:18.674Z,26.77
2023-03-14T10:58:47.671Z,20.47
2023-03-14T11:01:29.438Z,15.50
2023-03-14T11:03:59.415Z,21.50
2023-03-14T11:06:30.151Z,12.77
2023-03-14T11:08:59.142Z,14.97
2023-03-14T11:11:28.005Z,18.33
2023-03-14T11:13:58.394Z,16.17
2023-03-14T11:16:29.730Z,16.63
2023-03-14T11:19:06.804Z,17.47
2023-03-14T11:21:35.948Z,11.33
2023-03-14T11:24:08.952Z,8.80
2023-03-14T11:26:39.157Z,14.37
2023-03-14T11:29:11.817Z,13.67
2023-03-14T11:31:41.975Z,18.67
2023-03-14T11:34:13.326Z,14.33
2023-03-14T11:36:42.064Z,12.20
2023-03-14T11:39:11.422Z,11.77
2023-03-14T11:41:41.237Z,9.67
2023-03-14T11:44:12.885Z,12.70
2023-03-14T11:46:44.230Z,9.80
2023-03-14T11:49:14.790Z,11.50
2023-03-14T11:51:43.437Z,15.83
2023-03-14T11:54:15.031Z,11.07
2023-03-14T11:56:45.650Z,12.60
2023-03-14T11:59:15.333Z,17.10
2023-03-14T12:01:48.187Z,12.07
2023-03-14T12:04:17.454Z,11.33
2023-03-14T12:06:47.927Z,9.50
2023-03-14T12:09:16.406Z,10.13
2023-03-14T12:11:45.439Z,11.60
2023-03-14T12:14:23.954Z,12.83
2023-03-14T12:16:58.284Z,14.20
2023-03-14T12:19:42.063Z,12.13
2023-03-14T12:22:25.292Z,12.03
2023-03-14T12:24:54.382Z,10.47
2023-03-14T12:27:41.413Z,6.80
2023-03-14T12:30:13.463Z,10.83
2023-03-14T12:32:43.248Z,10.40
2023-03-14T12:35:26.597Z,9.13
2023-03-14T12:37:54.979Z,12.03
2023-03-14T12:40:23.489Z,13.73
2023-03-14T12:42:57.141Z,10.67
2023-03-14T12:45:27.048Z,7.17
2023-03-14T12:47:57.973Z,8.83
2023-03-14T12:50:31.988Z,9.03
2023-03-14T12:53:21.643Z,10.07
2023-03-14T12:55:50.608Z,12.17
2023-03-14T12:58:20.336Z,6.83
2023-03-14T13:00:48.742Z,7.83
2023-03-14T13:03:26.598Z,9.87
2023-03-14T13:05:55.624Z,8.53
2023-03-14T13:08:38.903Z,12.60
2023-03-14T13:11:08.833Z,14.17
2023-03-14T13:13:37.678Z,9.10
2023-03-14T13:16:06.811Z,10.87
2023-03-14T13:18:40.013Z,10.80
2023-03-14T13:21:08.955Z,8.40
2023-03-14T13:23:38.334Z,13.43
2023-03-14T13:26:08.886Z,8.90
2023-03-14T13:28:37.927Z,6.53
2023-03-14T13:31:07.228Z,10.33
2023-03-14T13:33:36.122Z,7.30
2023-03-14T13:36:06.614Z,7.90
2023-03-14T13:38:35.891Z,10.73
2023-03-14T13:41:06.905Z,10.10
2023-03-14T13:43:36.168Z,8.13
2023-03-14T13:46:05.633Z,10.70
2023-03-14T13:48:35.716Z,5.93
2023-03-14T13:51:07.035Z,9.10
2023-03-14T13:53:38.845Z,10.93
2023-03-14T13:56:07.781Z,13.73
2023-03-14T13:58:36.210Z,8.47
2023-03-14T14:01:06.257Z,10.50
2023-03-14T14:03:35.913Z,9.20
2023-03-14T14:06:06.170Z,9.50
2023-03-14T14:08:37.361Z,5.37
2023-03-14T14:11:06.565Z,7.87
2023-03-14T14:13:35.544Z,7.23
2023-03-14T14:16:04.900Z,9.60
2023-03-14T14:18:33.615Z,10.50
2023-03-14T14:21:02.962Z,10.97
2023-03-14T14:23:33.078Z,13.33
2023-03-14T14:26:01.698Z,14.83
2023-03-14T14:28:30.693Z,12.07
2023-03-14T14:31:02.741Z,12.33
2023-03-14T14:33:31.614Z,15.80
2023-03-14T14:36:00.549Z,10.00
2023-03-14T14:38:29.308Z,11.80
2023-03-14T14:41:03.598Z,13.27
2023-03-14T14:43:33.136Z,14.57
2023-03-14T14:46:01.608Z,9.10
2023-03-14T14:48:30.103Z,7.00
2023-03-14T14:51:01.676Z,7.97
2023-03-14T14:53:31.418Z,8.27
2023-03-14T14:56:01.942Z,7.57
2023-03-14T14:58:31.659Z,8.67
2023-03-14T15:01:00.637Z,8.50
2023-03-14T15:03:30.038Z,7.13
2023-03-14T15:05:58.707Z,9.10
2023-03-14T15:08:27.604Z,6.60
2023-03-14T15:10:56.186Z,7.23
2023-03-14T15:13:26.184Z,10.90
2023-03-14T15:15:57.005Z,7.70
2023-03-14T15:18:27.869Z,8.37
2023-03-14T15:20:57.506Z,5.70
2023-03-14T15:23:25.971Z,10.33
2023-03-14T15:25:56.196Z,6.37
2023-03-14T15:28:27.026Z,7.90
2023-03-14T15:30:55.935Z,7.37
2023-03-14T15:33:25.087Z,6.50
2023-03-14T15:35:53.725Z,8.17
2023-03-14T15:38:24.038Z,6.63
2023-03-14T15:40:52.673Z,7.10
2023-03-14T15:43:21.126Z,8.13
2023-03-14T15:45:51.723Z,9.07
2023-03-14T15:48:21.030Z,15.00
2023-03-14T15:50:49.442Z,5.90
2023-03-14T15:53:17.974Z,6.07
2023-03-14T15:55:46.446Z,6.70
2023-03-14T15:58:19.928Z,8.60
2023-03-14T16:00:51.076Z,7.00
2023-03-14T16:03:19.795Z,11.90
2023-03-14T16:05:48.484Z,9.97
2023-03-14T16:08:17.471Z,6.53
2023-03-14T16:10:46.744Z,9.63
2023-03-14T16:13:15.592Z,6.37
2023-03-14T16:15:44.159Z,10.23
2023-03-14T16:18:21.615Z,6.53
2023-03-14T16:20:59.751Z,9.83
2023-03-14T16:23:28.248Z,8.33
2023-03-14T16:25:56.809Z,10.23
2023-03-14T16:28:25.435Z,6.23
2023-03-14T16:30:53.760Z,13.43
2023-03-14T16:33:23.680Z,6.63
2023-03-14T16:35:58.633Z,7.20
2023-03-14T16:38:30.388Z,6.10
2023-03-14T16:41:00.712Z,17.27
2023-03-14T16:43:29.366Z,11.63
2023-03-14T16:45:59.629Z,12.10
2023-03-14T16:48:29.745Z,9.30
2023-03-14T16:50:58.237Z,10.93
2023-03-14T16:53:29.164Z,6.77
2023-03-14T16:55:57.743Z,11.10
2023-03-14T16:58:26.185Z,7.80
2023-03-14T17:00:57.805Z,6.23
2023-03-14T17:03:27.846Z,4.90
2023-03-14T17:05:58.256Z,8.80
2023-03-14T17:08:26.740Z,6.67
2023-03-14T17:10:55.242Z,7.73
2023-03-14T17:13:25.820Z,9.80
2023-03-14T17:15:54.806Z,8.47
2023-03-14T17:18:23.284Z,8.83
2023-03-14T17:20:52.738Z,8.37
2023-03-14T17:23:22.658Z,10.10
2023-03-14T17:25:52.188Z,9.57
2023-03-14T17:28:20.745Z,6.50
2023-03-14T17:30:52.119Z,9.03
2023-03-14T17:33:20.760Z,7.77
2023-03-14T17:35:49.216Z,7.17
2023-03-14T17:38:17.803Z,6.43
2023-03-14T17:40:50.219Z,20.10
2023-03-14T17:43:19.191Z,8.57
2023-03-14T17:45:47.794Z,3.73
2023-03-14T17:48:16.398Z,3.03
2023-03-14T17:50:44.931Z,4.67
2023-03-14T17:53:13.369Z,10.27
2023-03-14T17:55:43.212Z,5.83
2023-03-14T17:58:13.892Z,7.27
2023-03-14T18:00:42.386Z,8.10
2023-03-14T18:03:11.025Z,7.33
2023-03-14T18:05:40.601Z,6.13
2023-03-14T18:08:10.969Z,6.50
2023-03-14T18:10:40.160Z,11.07
2023-03-14T18:13:08.537Z,7.23
2023-03-14T18:15:38.788Z,7.47
2023-03-14T18:18:07.261Z,9.20
2023-03-14T18:20:35.810Z,8.77
2023-03-14T18:23:04.967Z,9.93
2023-03-14T18:25:33.330Z,10.67
2023-03-14T18:28:01.833Z,9.80
2023-03-14T18:30:30.775Z,12.17
2023-03-14T18:33:00.806Z,12.20
2023-03-14T18:35:29.361Z,8.40
2023-03-14T18:37:57.933Z,8.40
2023-03-14T18:40:26.357Z,13.07
2023-03-14T18:42:54.762Z,10.83
2023-03-14T18:45:23.276Z,12.27
2023-03-14T18:47:51.709Z,10.50
2023-03-14T18:50:22.000Z,12.30
2023-03-14T18:52:50.829Z,9.60
2023-03-14T18:55:19.458Z,13.87
2023-03-14T18:57:50.918Z,11.43
2023-03-14T19:00:21.554Z,12.90
2023-03-14T19:02:50.405Z,10.87
2023-03-14T19:05:19.209Z,10.67
2023-03-14T19:07:49.158Z,12.37
2023-03-14T19:10:17.660Z,17.77
2023-03-14T19:12:46.774Z,16.20
2023-03-14T19:15:15.804Z,7.70
2023-03-14T19:17:45.270Z,11.57
2023-03-14T19:20:14.693Z,11.03
2023-03-14T19:22:43.649Z,10.87
2023-03-14T19:25:13.479Z,13.63
2023-03-14T19:27:42.042Z,11.53
2023-03-14T19:30:10.898Z,12.63
2023-03-14T19:32:39.817Z,9.67
2023-03-14T19:35:08.608Z,11.83
2023-03-14T19:37:38.442Z,10.77
2023-03-14T19:40:10.126Z,10.00
2023-03-14T19:42:42.792Z,10.87
2023-03-14T19:45:11.797Z,10.50
2023-03-14T19:47:40.303Z,10.50
2023-03-14T19:50:09.685Z,15.73
2023-03-14T19:52:39.512Z,11.83
2023-03-14T19:55:08.191Z,10.43
2023-03-14T19:57:36.954Z,10.87
2023-03-14T20:00:12.017Z,12.60
2023-03-14T20:02:41.787Z,10.50
2023-03-14T20:05:13.334Z,15.37
2023-03-14T20:07:41.888Z,15.73
2023-03-14T20:10:10.990Z,12.00
2023-03-14T20:12:40.039Z,9.10
2023-03-14T20:15:12.875Z,11.80
2023-03-14T20:17:41.455Z,11.27
2023-03-14T20:20:10.774Z,8.87
2023-03-14T20:22:39.275Z,7.87
2023-03-14T20:25:08.246Z,13.47
2023-03-14T20:27:36.862Z,14.17
2023-03-14T20:30:22.331Z,7.30
2023-03-14T20:32:51.453Z,6.80
2023-03-14T20:35:23.680Z,7.57
2023-03-14T20:37:53.074Z,5.53
2023-03-14T20:40:21.930Z,15.77
2023-03-14T20:42:50.341Z,9.73
2023-03-14T20:45:20.264Z,10.03
2023-03-14T20:47:48.796Z,6.80
2023-03-14T20:50:17.230Z,6.07
2023-03-14T20:52:46.993Z,6.73
2023-03-14T20:55:15.409Z,8.70
2023-03-14T20:57:43.911Z,8.33
2023-03-14T21:00:14.212Z,7.73
2023-03-14T21:02:44.412Z,6.93
2023-03-14T21:05:13.529Z,8.07
2023-03-14T21:07:43.650Z,8.97
2023-03-14T21:10:13.090Z,7.27
2023-03-14T21:12:41.553Z,10.47
2023-03-14T21:15:14.373Z,5.20
2023-03-14T21:17:44.159Z,4.53
2023-03-14T21:20:13.134Z,3.40
2023-03-14T21:22:41.566Z,3.93
2023-03-14T21:25:10.223Z,2.93
2023-03-14T21:27:39.713Z,7.30
2023-03-14T21:30:09.266Z,5.37
2023-03-14T21:32:37.631Z,7.93
2023-03-14T21:35:07.870Z,14.07
2023-03-14T21:37:36.555Z,2.20
2023-03-14T21:40:08.317Z,4.27
2023-03-14T21:42:37.000Z,3.27
2023-03-14T21:45:06.419Z,2.63
2023-03-14T21:47:34.949Z,2.40
2023-03-14T21:50:04.087Z,1.90
2023-03-14T21:52:34.146Z,4.77
2023-03-14T21:55:03.666Z,4.93
2023-03-14T21:57:33.298Z,7.47
2023-03-14T22:00:01.935Z,6.97
2023-03-14T22:02:30.437Z,7.57
2023-03-14T22:04:58.938Z,3.33
2023-03-14T22:07:27.593Z,10.87
2023-03-14T22:09:57.427Z,4.40
2023-03-14T22:12:25.911Z,2.77
2023-03-14T22:14:54.276Z,3.37
2023-03-14T22:17:22.654Z,9.33
2023-03-14T22:19:51.274Z,2.80
2023-03-14T22:22:19.720Z,6.27
2023-03-14T22:24:48.274Z,3.83
2023-03-14T22:27:18.171Z,4.17
2023-03-14T22:29:46.676Z,5.67
2023-03-14T22:32:15.224Z,3.53
2023-03-14T22:34:43.560Z,5.10
2023-03-14T22:37:14.286Z,1.63
2023-03-14T22:39:42.899Z,1.63
2023-03-14T22:42:11.428Z,4.23
2023-03-14T22:44:41.171Z,3.17
2023-03-14T22:47:10.861Z,2.37
2023-03-14T22:49:39.286Z,6.23
2023-03-14T22:52:07.679Z,7.37
2023-03-14T22:54:36.094Z,4.03
2023-03-14T22:57:04.858Z,5.43
2023-03-14T22:59:33.246Z,5.57
2023-03-14T23:02:05.200Z,4.63
2023-03-14T23:04:35.314Z,5.37
2023-03-14T23:07:04.406Z,1.83
2023-03-14T23:09:33.238Z,6.53
2023-03-14T23:12:01.641Z,6.57
2023-03-14T23:14:30.270Z,5.00
2023-03-14T23:16:59.644Z,3.13
2023-03-14T23:19:30.402Z,5.40
2023-03-14T23:21:58.858Z,6.83
2023-03-14T23:24:27.355Z,5.17
2023-03-14T23:26:56.025Z,6.70
2023-03-14T23:29:29.157Z,5.73
2023-03-14T23:31:58.589Z,9.13
2023-03-14T23:34:27.120Z,3.50
2023-03-14T23:36:57.369Z,7.37
2023-03-14T23:39:25.895Z,7.43
2023-03-14T23:41:54.954Z,8.13
2023-03-14T23:44:24.165Z,5.47
2023-03-14T23:46:53.334Z,5.13
2023-03-14T23:49:21.889Z,5.30
2023-03-14T23:51:50.378Z,3.10
2023-03-14T23:54:20.281Z,5.80
2023-03-14T23:56:48.688Z,4.00
2023-03-14T23:59:17.252Z,5.97
